Time;durP1;ratioP1;P1;durP2;ratioP2;P2;SDS_P1;SDS_P2;PMS_P1;PMS_P2;Temp;Humidity;BMP_temperature;BMP_pressure;BME280_temperature;BME280_humidity;BME280_pressure;Samples;Min_cycle;Max_cycle;Signal;HPM_P1;HPM_P2
2022/03/08 00:02:23;;;;;;;16.80;9.53;;;-0.80;99.90;;;;;;5013350;28;20465;-71
2022/03/08 00:04:50;;;;;;;16.07;10.23;;;-0.80;99.90;;;;;;5013068;28;20454;-71
2022/03/08 00:07:18;;;;;;;13.20;9.37;;;-0.80;99.90;;;;;;5005460;28;20478;-71
2022/03/08 00:09:45;;;;;;;17.87;9.47;;;-0.80;99.90;;;;;;5013553;28;21083;-71
2022/03/08 00:12:13;;;;;;;13.00;9.30;;;-0.80;99.90;;;;;;5013126;28;20455;-71
2022/03/08 00:14:39;;;;;;;16.70;10.30;;;-0.80;99.90;;;;;;5012457;28;20544;-71
2022/03/08 00:17:06;;;;;;;15.20;9.63;;;-0.90;99.90;;;;;;5012972;28;20485;-71
2022/03/08 00:19:33;;;;;;;14.17;9.67;;;-0.90;99.90;;;;;;5012904;28;20989;-71
2022/03/08 00:22:00;;;;;;;16.57;9.80;;;-1.00;99.90;;;;;;5012155;28;20522;-71
2022/03/08 00:24:26;;;;;;;17.50;10.77;;;-0.90;99.90;;;;;;5006762;28;20950;-71
2022/03/08 00:26:53;;;;;;;16.80;10.30;;;-0.70;99.90;;;;;;5012674;28;20474;-71
2022/03/08 00:29:21;;;;;;;16.30;10.17;;;-1.00;99.90;;;;;;5012697;28;20454;-71
2022/03/08 00:31:48;;;;;;;14.87;10.27;;;-0.90;99.90;;;;;;5012220;28;20462;-71
2022/03/08 00:34:15;;;;;;;16.87;10.43;;;-1.00;99.90;;;;;;5011225;28;20991;-71
2022/03/08 00:36:41;;;;;;;15.70;9.83;;;-1.10;99.90;;;;;;5012872;28;20470;-71
2022/03/08 00:39:08;;;;;;;15.67;9.80;;;-1.10;99.90;;;;;;5012532;28;20442;-71
2022/03/08 00:41:35;;;;;;;21.50;10.83;;;-1.20;99.90;;;;;;5012403;28;20520;-71
2022/03/08 00:44:03;;;;;;;14.30;9.30;;;-1.20;99.90;;;;;;5011983;28;20458;-71
2022/03/08 00:46:31;;;;;;;16.20;10.53;;;-1.20;99.90;;;;;;5012223;28;20564;-71
2022/03/08 00:48:58;;;;;;;15.27;9.80;;;-1.20;99.90;;;;;;5011996;28;20450;-71
2022/03/08 00:51:25;;;;;;;16.50;10.60;;;-1.20;99.90;;;;;;5012425;28;20450;-71
2022/03/08 00:53:52;;;;;;;19.07;9.90;;;-1.20;99.90;;;;;;5011991;28;20481;-71
2022/03/08 00:56:19;;;;;;;15.20;9.67;;;-1.30;99.90;;;;;;5012476;28;20532;-72
2022/03/08 00:58:45;;;;;;;17.97;10.60;;;-1.30;99.90;;;;;;5012139;28;20458;-71
2022/03/08 01:01:12;;;;;;;13.03;9.17;;;-1.00;99.90;;;;;;5011992;28;20465;-71
2022/03/08 01:03:40;;;;;;;13.37;8.70;;;-1.30;99.90;;;;;;5012114;28;20458;-71
2022/03/08 01:06:07;;;;;;;20.90;8.97;;;-1.20;99.90;;;;;;5012026;28;20491;-71
2022/03/08 01:08:34;;;;;;;16.90;9.47;;;-1.10;99.90;;;;;;5012042;28;20958;-71
2022/03/08 01:11:00;;;;;;;19.70;8.70;;;-1.20;99.90;;;;;;5011167;28;20872;-71
2022/03/08 01:13:27;;;;;;;13.40;8.50;;;-1.20;99.90;;;;;;5011510;28;20457;-71
2022/03/08 01:15:54;;;;;;;18.13;10.37;;;-1.00;99.90;;;;;;5011466;28;20540;-71
2022/03/08 01:18:20;;;;;;;15.30;9.77;;;-1.30;99.90;;;;;;5011800;28;20458;-72
2022/03/08 01:20:48;;;;;;;17.30;9.97;;;-1.10;99.90;;;;;;5011998;28;20454;-71
2022/03/08 01:23:15;;;;;;;14.17;9.20;;;-1.30;99.90;;;;;;5011696;28;20454;-71
2022/03/08 01:25:42;;;;;;;16.50;10.20;;;-1.40;99.90;;;;;;5011279;28;20990;-71
2022/03/08 01:28:09;;;;;;;17.27;10.90;;;-1.40;99.90;;;;;;5011469;28;20505;-71
2022/03/08 01:30:36;;;;;;;16.13;9.57;;;-1.10;99.90;;;;;;5011615;28;20835;-71
2022/03/08 01:33:03;;;;;;;18.30;9.83;;;-1.50;99.90;;;;;;5001520;28;20980;-71
2022/03/08 01:35:29;;;;;;;16.33;9.60;;;-1.30;99.90;;;;;;5011570;28;20532;-71
2022/03/08 01:37:58;;;;;;;15.50;10.00;;;-1.60;99.90;;;;;;5011671;28;20458;-71
2022/03/08 01:40:25;;;;;;;16.73;9.70;;;-1.60;99.90;;;;;;5011394;28;20454;-72
2022/03/08 01:42:53;;;;;;;22.57;10.00;;;-1.60;99.90;;;;;;5010861;28;20461;-72
2022/03/08 01:45:22;;;;;;;17.50;10.80;;;-1.70;99.90;;;;;;5010969;28;20504;-71
2022/03/08 01:47:49;;;;;;;18.97;10.33;;;-1.70;99.90;;;;;;5011245;28;20458;-71
2022/03/08 01:50:16;;;;;;;17.20;10.13;;;-1.80;99.90;;;;;;5000764;28;20454;-72
2022/03/08 01:52:44;;;;;;;21.13;10.60;;;-1.80;99.90;;;;;;5011132;28;20458;-72
2022/03/08 01:55:14;;;;;;;16.93;10.30;;;-1.80;99.90;;;;;;5010343;28;20486;-72
2022/03/08 01:57:41;;;;;;;18.00;10.20;;;-1.80;99.90;;;;;;5010980;28;20461;-72
2022/03/08 02:00:11;;;;;;;21.10;10.10;;;-1.90;99.90;;;;;;5010783;28;20454;-72
2022/03/08 02:02:39;;;;;;;19.50;11.17;;;-1.90;99.90;;;;;;5011065;28;20454;-71
2022/03/08 02:05:06;;;;;;;19.60;11.30;;;-1.90;99.90;;;;;;5010610;28;20458;-72
2022/03/08 02:07:33;;;;;;;18.97;10.13;;;-2.00;99.90;;;;;;5010894;28;20482;-71
2022/03/08 02:10:00;;;;;;;16.83;10.40;;;-2.00;99.90;;;;;;5010924;28;20450;-72
2022/03/08 02:12:28;;;;;;;23.20;11.30;;;-1.60;99.90;;;;;;5010523;28;20505;-72
2022/03/08 02:14:55;;;;;;;22.37;10.70;;;-2.00;99.90;;;;;;5010524;28;20508;-71
2022/03/08 02:17:21;;;;;;;24.60;11.33;;;-2.00;99.90;;;;;;5011238;28;20478;-71
2022/03/08 02:19:48;;;;;;;19.40;10.60;;;-2.00;99.90;;;;;;5011021;28;21012;-72
2022/03/08 02:22:16;;;;;;;17.77;10.27;;;-2.00;99.90;;;;;;5010638;28;20807;-72
2022/03/08 02:24:43;;;;;;;29.13;10.50;;;-2.10;99.90;;;;;;5010602;28;20540;-72
2022/03/08 02:27:10;;;;;;;21.17;10.67;;;-2.00;99.90;;;;;;5010611;28;20501;-72
2022/03/08 02:29:37;;;;;;;18.30;9.83;;;-1.80;99.90;;;;;;5011156;28;20485;-72
2022/03/08 02:32:04;;;;;;;18.23;11.10;;;-2.10;99.90;;;;;;5010940;28;20453;-72
2022/03/08 02:34:31;;;;;;;18.30;9.47;;;-2.10;99.90;;;;;;5009749;28;20555;-72
2022/03/08 02:37:04;;;;;;;16.40;11.07;;;-2.10;99.90;;;;;;5010139;28;20599;-72
2022/03/08 02:39:33;;;;;;;19.30;10.37;;;-1.80;99.90;;;;;;5010270;28;20981;-72
2022/03/08 02:42:00;;;;;;;17.63;9.40;;;-1.80;99.90;;;;;;5010003;28;20958;-72
2022/03/08 02:44:27;;;;;;;18.30;10.13;;;-2.20;99.90;;;;;;4991124;28;20575;-72
2022/03/08 02:46:54;;;;;;;22.17;10.40;;;-2.20;99.90;;;;;;5005102;28;20958;-72
2022/03/08 02:49:21;;;;;;;22.63;11.30;;;-1.70;99.90;;;;;;5010517;28;20505;-72
2022/03/08 02:51:48;;;;;;;22.40;11.27;;;-2.00;99.90;;;;;;5010738;28;20454;-72
2022/03/08 02:54:14;;;;;;;22.10;11.10;;;-2.20;99.90;;;;;;5009901;28;20450;-72
2022/03/08 02:56:42;;;;;;;23.13;11.47;;;-1.90;99.90;;;;;;5011556;28;20544;-72
2022/03/08 02:59:09;;;;;;;22.23;11.70;;;-2.20;99.90;;;;;;5013941;28;20454;-71
2022/03/08 03:01:36;;;;;;;19.43;11.37;;;-2.00;99.90;;;;;;5014728;28;20454;-71
2022/03/08 03:04:02;;;;;;;16.63;10.70;;;-2.20;99.90;;;;;;5014329;28;20454;-72
2022/03/08 03:06:29;;;;;;;18.33;10.30;;;-2.30;99.90;;;;;;5005826;28;20555;-72
2022/03/08 03:08:56;;;;;;;20.00;9.87;;;-2.30;99.90;;;;;;5014279;28;20978;-72
2022/03/08 03:11:23;;;;;;;17.30;10.07;;;-2.20;99.90;;;;;;5014433;28;20454;-72
2022/03/08 03:13:51;;;;;;;15.67;9.00;;;-1.90;99.90;;;;;;5013331;28;20947;-71
2022/03/08 03:16:17;;;;;;;13.67;8.80;;;-2.10;99.90;;;;;;5014028;28;20500;-71
2022/03/08 03:18:44;;;;;;;15.63;9.20;;;-2.20;99.90;;;;;;5014249;28;20461;-71
2022/03/08 03:21:11;;;;;;;16.60;9.80;;;-2.30;99.90;;;;;;5013768;28;20454;-72
2022/03/08 03:23:37;;;;;;;15.27;9.53;;;-2.20;99.90;;;;;;5014181;28;20954;-72
2022/03/08 03:26:04;;;;;;;14.00;9.20;;;-2.30;99.90;;;;;;5013803;28;20462;-72
2022/03/08 03:28:31;;;;;;;18.10;8.47;;;-2.30;99.90;;;;;;5014342;28;20512;-72
2022/03/08 03:30:59;;;;;;;13.97;8.80;;;-2.40;99.90;;;;;;5013761;28;20965;-72
2022/03/08 03:33:26;;;;;;;18.80;9.50;;;-2.40;99.90;;;;;;5013516;28;20508;-72
2022/03/08 03:35:52;;;;;;;18.10;8.63;;;-2.40;99.90;;;;;;5013532;28;20710;-71
2022/03/08 03:38:19;;;;;;;14.70;9.40;;;-2.40;99.90;;;;;;5013220;28;20509;-72
2022/03/08 03:40:46;;;;;;;13.30;9.13;;;-2.30;99.90;;;;;;5013430;28;20450;-72
2022/03/08 03:43:12;;;;;;;12.23;8.67;;;-2.30;99.90;;;;;;5013644;28;20461;-72
2022/03/08 03:45:39;;;;;;;15.43;9.73;;;-2.30;99.90;;;;;;5013518;28;20540;-72
2022/03/08 03:48:07;;;;;;;18.03;8.90;;;-2.40;99.90;;;;;;5013784;28;20457;-72
2022/03/08 03:50:34;;;;;;;13.40;8.73;;;-2.40;99.90;;;;;;5013460;28;20462;-72
2022/03/08 03:53:01;;;;;;;15.10;8.83;;;-2.40;99.90;;;;;;5013621;28;20524;-72
2022/03/08 03:55:28;;;;;;;12.40;8.23;;;-2.40;99.90;;;;;;5012824;28;20518;-72
2022/03/08 03:57:55;;;;;;;13.77;8.80;;;-2.40;99.90;;;;;;5012964;28;20470;-72
2022/03/08 04:00:21;;;;;;;12.23;8.67;;;-2.40;99.90;;;;;;5013417;28;20505;-72
2022/03/08 04:02:48;;;;;;;14.57;9.07;;;-1.70;99.90;;;;;;5013232;28;20818;-72
2022/03/08 04:05:16;;;;;;;14.23;8.63;;;-2.40;99.90;;;;;;5012553;28;20462;-72
2022/03/08 04:07:43;;;;;;;14.40;9.40;;;-2.30;99.90;;;;;;5012242;28;20485;-72
2022/03/08 04:10:12;;;;;;;17.40;9.20;;;-2.30;99.90;;;;;;5012479;28;21056;-72
2022/03/08 04:12:38;;;;;;;13.60;9.57;;;-2.50;99.90;;;;;;5013340;28;20454;-72
2022/03/08 04:15:06;;;;;;;15.73;9.23;;;-2.50;99.90;;;;;;5012848;28;21029;-72
2022/03/08 04:17:33;;;;;;;20.53;9.50;;;-2.60;99.90;;;;;;5012542;28;20470;-72
2022/03/08 04:19:59;;;;;;;14.83;9.20;;;-1.70;99.90;;;;;;5012429;28;20461;-72
2022/03/08 04:22:28;;;;;;;14.60;8.70;;;-2.60;99.90;;;;;;5013105;28;20476;-72
2022/03/08 04:24:54;;;;;;;16.90;9.40;;;-2.50;99.90;;;;;;5012629;28;20454;-72
2022/03/08 04:27:21;;;;;;;16.97;7.80;;;-2.40;99.90;;;;;;5012666;28;20474;-72
2022/03/08 04:29:48;;;;;;;11.93;8.33;;;-2.20;99.90;;;;;;5012790;28;20450;-73
2022/03/08 04:32:15;;;;;;;16.53;9.37;;;-2.60;99.90;;;;;;5012490;28;20454;-72
2022/03/08 04:34:42;;;;;;;12.60;8.50;;;-2.40;99.90;;;;;;5012904;28;20485;-72
2022/03/08 04:37:08;;;;;;;13.07;8.43;;;-2.00;99.90;;;;;;5012395;28;20991;-72
2022/03/08 04:39:36;;;;;;;12.77;8.83;;;-2.70;99.90;;;;;;5012596;28;20454;-72
2022/03/08 04:42:04;;;;;;;14.37;9.30;;;-2.40;99.90;;;;;;5012717;28;20929;-72
2022/03/08 04:44:30;;;;;;;13.70;8.60;;;-2.70;99.90;;;;;;5012277;28;20465;-72
2022/03/08 04:46:57;;;;;;;16.70;8.80;;;-2.70;99.90;;;;;;5012013;28;20474;-73
2022/03/08 04:49:25;;;;;;;26.77;10.90;;;-2.10;99.90;;;;;;5012553;28;20454;-72
2022/03/08 04:51:51;;;;;;;24.03;9.47;;;-2.40;99.90;;;;;;5012417;28;20454;-71
2022/03/08 04:54:18;;;;;;;13.57;8.20;;;-2.80;99.90;;;;;;5012127;28;20450;-72
2022/03/08 04:56:46;;;;;;;14.93;9.70;;;-2.80;99.90;;;;;;5011899;28;20482;-72
2022/03/08 04:59:13;;;;;;;11.00;8.17;;;-2.50;99.90;;;;;;5011946;28;20451;-72
2022/03/08 05:01:40;;;;;;;15.00;8.97;;;-2.80;99.90;;;;;;5012117;28;20458;-72
2022/03/08 05:04:06;;;;;;;14.33;9.20;;;-2.50;99.90;;;;;;5011516;28;20466;-72
2022/03/08 05:06:33;;;;;;;15.93;9.50;;;-2.80;99.90;;;;;;5011782;28;20470;-72
2022/03/08 05:09:00;;;;;;;13.87;9.00;;;-2.20;99.90;;;;;;5012183;28;20450;-72
2022/03/08 05:11:26;;;;;;;14.87;9.30;;;-2.80;99.90;;;;;;5011831;28;21005;-72
2022/03/08 05:13:55;;;;;;;14.93;8.93;;;-2.80;99.90;;;;;;5011699;28;20446;-72
2022/03/08 05:16:21;;;;;;;18.37;9.10;;;-2.60;99.90;;;;;;5011497;28;20493;-72
2022/03/08 05:18:48;;;;;;;15.30;9.43;;;-2.90;99.90;;;;;;5012096;28;20527;-72
2022/03/08 05:21:15;;;;;;;15.93;9.43;;;-2.70;99.90;;;;;;5011255;28;20466;-72
2022/03/08 05:23:42;;;;;;;12.03;8.67;;;-2.70;99.90;;;;;;5011797;28;20513;-73
2022/03/08 05:26:08;;;;;;;13.30;9.00;;;-2.90;99.90;;;;;;5011223;28;20520;-72
2022/03/08 05:28:35;;;;;;;21.63;10.67;;;-3.00;99.90;;;;;;5012054;28;20930;-72
2022/03/08 05:31:04;;;;;;;15.07;9.40;;;-2.60;99.90;;;;;;5011616;28;20524;-72
2022/03/08 05:33:30;;;;;;;17.17;10.23;;;-3.00;99.90;;;;;;5011509;28;20504;-72
2022/03/08 05:35:57;;;;;;;25.37;10.50;;;-3.00;99.90;;;;;;5011549;28;20509;-72
2022/03/08 05:38:24;;;;;;;17.17;11.13;;;-3.00;99.90;;;;;;5011807;28;20454;-72
2022/03/08 05:40:50;;;;;;;17.10;10.30;;;-3.00;99.90;;;;;;5011136;28;20512;-72
2022/03/08 05:43:17;;;;;;;22.80;12.13;;;-3.00;99.90;;;;;;5011417;28;20525;-72
2022/03/08 05:45:44;;;;;;;18.83;11.30;;;-2.80;99.90;;;;;;5011014;28;20470;-72
2022/03/08 05:48:12;;;;;;;24.43;12.30;;;-2.50;99.90;;;;;;5011663;28;20458;-72
2022/03/08 05:50:39;;;;;;;22.20;12.10;;;-3.00;99.90;;;;;;5011216;28;20516;-72
2022/03/08 05:53:05;;;;;;;24.20;12.23;;;-3.00;99.90;;;;;;5011239;28;20496;-72
2022/03/08 05:55:32;;;;;;;18.43;11.70;;;-3.10;99.90;;;;;;5011245;28;20505;-72
2022/03/08 05:57:59;;;;;;;23.43;11.50;;;-2.90;99.90;;;;;;5010460;28;20508;-72
2022/03/08 06:00:26;;;;;;;21.10;12.00;;;-2.90;99.90;;;;;;5011054;28;20466;-72
2022/03/08 06:02:52;;;;;;;23.73;11.90;;;-2.90;99.90;;;;;;5010451;28;20450;-72
2022/03/08 06:05:22;;;;;;;18.47;11.37;;;-2.90;99.90;;;;;;5010601;28;20541;-70
2022/03/08 06:07:49;;;;;;;19.30;11.90;;;-2.80;99.90;;;;;;5011100;28;20950;-71
2022/03/08 06:10:15;;;;;;;20.23;11.30;;;-2.50;99.90;;;;;;5011251;28;21017;-71
2022/03/08 06:12:44;;;;;;;17.47;10.43;;;-2.40;99.90;;;;;;5010598;28;20446;-71
2022/03/08 06:15:11;;;;;;;19.67;12.10;;;-2.70;99.90;;;;;;5010655;28;20941;-71
2022/03/08 06:17:38;;;;;;;20.00;11.00;;;-2.60;99.90;;;;;;5010732;28;20549;-71
2022/03/08 06:20:06;;;;;;;17.50;11.27;;;-2.50;99.90;;;;;;5010594;28;20484;-71
2022/03/08 06:22:34;;;;;;;21.40;11.57;;;-2.40;99.90;;;;;;5010972;28;20537;-71
2022/03/08 06:25:00;;;;;;;16.50;9.90;;;-2.30;99.90;;;;;;5010918;28;20450;-71
2022/03/08 06:27:27;;;;;;;23.43;11.00;;;-1.90;99.90;;;;;;5010370;28;20528;-71
2022/03/08 06:29:54;;;;;;;15.87;10.30;;;-1.80;99.90;;;;;;5010870;28;20454;-71
2022/03/08 06:32:21;;;;;;;17.80;9.80;;;-1.60;99.90;;;;;;5009088;28;20923;-71
2022/03/08 06:34:50;;;;;;;20.20;10.60;;;-1.30;99.90;;;;;;5009527;28;20458;-71
2022/03/08 06:37:17;;;;;;;19.73;10.70;;;-0.80;99.90;;;;;;5008090;28;20493;-71
2022/03/08 06:39:46;;;;;;;19.27;10.70;;;-0.30;99.90;;;;;;5009428;28;20974;-71
2022/03/08 06:42:13;;;;;;;17.27;10.60;;;0.20;99.90;;;;;;5009197;28;20454;-71
2022/03/08 06:44:40;;;;;;;20.03;11.57;;;0.80;99.90;;;;;;5009065;28;20450;-71
2022/03/08 06:47:07;;;;;;;16.93;10.20;;;1.40;99.90;;;;;;5009910;28;20905;-71
2022/03/08 06:49:34;;;;;;;14.63;10.33;;;2.00;99.90;;;;;;5009806;28;20450;-70
2022/03/08 06:52:01;;;;;;;21.00;11.00;;;2.40;99.90;;;;;;5009929;28;20479;-71
2022/03/08 06:54:27;;;;;;;15.93;9.53;;;2.90;99.90;;;;;;5010247;28;20946;-71
2022/03/08 06:56:55;;;;;;;15.57;9.60;;;3.40;99.90;;;;;;5010353;28;20486;-70
2022/03/08 06:59:22;;;;;;;21.17;11.10;;;3.80;99.90;;;;;;5010325;28;20457;-70
2022/03/08 07:01:49;;;;;;;16.03;10.17;;;4.20;99.90;;;;;;5010015;28;20450;-72
2022/03/08 07:04:16;;;;;;;16.47;10.20;;;4.70;99.90;;;;;;5010494;28;20446;-73
2022/03/08 07:06:43;;;;;;;19.23;9.53;;;5.10;99.90;;;;;;5009877;28;21001;-74
2022/03/08 07:09:10;;;;;;;19.70;9.70;;;5.50;99.90;;;;;;5010446;28;20446;-74
2022/03/08 07:11:37;;;;;;;15.80;9.63;;;5.80;99.90;;;;;;5010087;28;21024;-74
2022/03/08 07:14:05;;;;;;;20.47;10.27;;;6.00;99.90;;;;;;5001439;28;21113;-74
2022/03/08 07:16:32;;;;;;;18.30;9.93;;;6.30;99.90;;;;;;5008211;28;20501;-74
2022/03/08 07:18:58;;;;;;;22.73;10.20;;;6.60;99.90;;;;;;5010019;28;20445;-74
2022/03/08 07:21:25;;;;;;;24.93;10.10;;;7.00;99.90;;;;;;5008857;28;20520;-74
2022/03/08 07:23:52;;;;;;;16.20;10.73;;;7.30;99.90;;;;;;5007632;28;21137;-74
2022/03/08 07:26:19;;;;;;;16.97;11.10;;;7.70;99.90;;;;;;5009700;28;20473;-74
2022/03/08 07:28:46;;;;;;;18.20;10.40;;;8.20;99.90;;;;;;5009512;28;20489;-74
2022/03/08 07:31:14;;;;;;;12.70;9.53;;;8.50;99.90;;;;;;5009839;28;20508;-74
2022/03/08 07:33:41;;;;;;;17.30;9.80;;;8.70;99.90;;;;;;5007795;28;20532;-72
2022/03/08 07:36:08;;;;;;;14.70;10.20;;;9.00;99.90;;;;;;5009829;28;20544;-73
2022/03/08 07:38:36;;;;;;;14.40;9.20;;;9.30;99.90;;;;;;5009967;28;20820;-72
2022/03/08 07:41:03;;;;;;;14.07;9.20;;;9.50;99.90;;;;;;5008918;28;20462;-72
2022/03/08 07:43:30;;;;;;;17.33;9.93;;;9.70;99.90;;;;;;5010102;28;20735;-72
2022/03/08 07:45:57;;;;;;;13.97;8.60;;;10.10;99.90;;;;;;5011521;28;20466;-72
2022/03/08 07:48:25;;;;;;;24.50;9.50;;;10.50;98.80;;;;;;5011704;28;20805;-72
2022/03/08 07:50:52;;;;;;;19.23;9.50;;;10.30;99.10;;;;;;5010902;28;20454;-72
2022/03/08 07:53:19;;;;;;;13.30;9.47;;;10.30;98.30;;;;;;5012167;28;20847;-72
2022/03/08 07:55:46;;;;;;;15.07;10.40;;;10.40;97.80;;;;;;5011968;28;20474;-71
2022/03/08 07:58:14;;;;;;;14.83;9.40;;;10.30;97.50;;;;;;5012065;28;20457;-72
2022/03/08 08:00:42;;;;;;;11.97;8.90;;;10.00;97.40;;;;;;5013153;28;21020;-72
2022/03/08 08:03:09;;;;;;;12.77;9.73;;;9.70;98.90;;;;;;5006563;28;20468;-72
2022/03/08 08:05:39;;;;;;;14.50;9.87;;;9.50;99.10;;;;;;5012615;28;20493;-73
2022/03/08 08:08:08;;;;;;;11.50;9.57;;;9.40;99.20;;;;;;5008486;28;20493;-72
2022/03/08 08:10:36;;;;;;;12.33;9.53;;;9.10;99.00;;;;;;5013035;28;20442;-72
2022/03/08 08:13:03;;;;;;;15.37;9.60;;;8.80;99.50;;;;;;5010258;28;20454;-72
2022/03/08 08:15:30;;;;;;;14.93;9.73;;;8.60;99.90;;;;;;5012357;28;20450;-71
2022/03/08 08:17:57;;;;;;;16.57;10.67;;;8.70;99.60;;;;;;5010081;28;20486;-73
2022/03/08 08:20:24;;;;;;;17.47;9.83;;;8.60;99.30;;;;;;5012247;28;20457;-73
2022/03/08 08:22:52;;;;;;;15.80;10.57;;;8.60;99.90;;;;;;5010630;28;20482;-72
2022/03/08 08:25:19;;;;;;;20.37;11.83;;;8.60;99.90;;;;;;5010547;28;21321;-72
2022/03/08 08:27:46;;;;;;;16.77;10.67;;;8.60;99.90;;;;;;5011938;28;20482;-73
2022/03/08 08:30:13;;;;;;;16.57;11.30;;;8.60;99.90;;;;;;5011455;28;20493;-73
2022/03/08 08:32:40;;;;;;;16.93;11.60;;;8.70;99.90;;;;;;5011774;28;20455;-71
2022/03/08 08:35:08;;;;;;;18.90;11.93;;;8.80;99.90;;;;;;5010711;28;20477;-71
2022/03/08 08:37:35;;;;;;;19.20;11.70;;;9.00;99.90;;;;;;5010530;28;21014;-70
2022/03/08 08:40:04;;;;;;;16.43;11.43;;;9.20;99.90;;;;;;5011683;28;20456;-70
2022/03/08 08:42:31;;;;;;;16.27;11.20;;;9.40;99.90;;;;;;5012153;28;20827;-71
2022/03/08 08:44:57;;;;;;;15.43;10.80;;;9.50;99.80;;;;;;5010463;28;20458;-71
2022/03/08 08:47:24;;;;;;;19.53;11.07;;;9.40;99.60;;;;;;5011083;28;20999;-70
2022/03/08 08:49:51;;;;;;;19.73;11.60;;;8.90;99.90;;;;;;5010155;28;20457;-70
2022/03/08 08:52:18;;;;;;;19.83;11.50;;;8.60;99.90;;;;;;5011314;28;20918;-69
2022/03/08 08:54:47;;;;;;;15.50;10.30;;;8.30;99.90;;;;;;5010589;28;20458;-70
2022/03/08 08:57:15;;;;;;;15.73;10.93;;;8.30;99.90;;;;;;5012294;28;20486;-70
2022/03/08 08:59:42;;;;;;;18.00;11.03;;;8.30;99.90;;;;;;5011660;28;20548;-70
2022/03/08 09:02:09;;;;;;;15.60;10.77;;;8.20;99.90;;;;;;5012898;28;20457;-70
2022/03/08 09:04:36;;;;;;;15.97;10.67;;;8.40;99.90;;;;;;5007636;28;20478;-71
2022/03/08 09:07:04;;;;;;;16.20;10.67;;;8.50;99.90;;;;;;5011861;28;20822;-71
2022/03/08 09:09:31;;;;;;;17.00;10.87;;;8.50;99.90;;;;;;5011896;28;20454;-71
2022/03/08 09:11:58;;;;;;;21.47;11.50;;;8.50;99.90;;;;;;5011756;28;20973;-71
2022/03/08 09:14:26;;;;;;;21.30;10.73;;;8.20;99.90;;;;;;5010929;28;20450;-72
2022/03/08 09:16:53;;;;;;;14.57;10.40;;;8.00;99.90;;;;;;5011438;28;20514;-71
2022/03/08 09:19:20;;;;;;;18.80;11.20;;;7.90;99.90;;;;;;5011367;28;20458;-71
2022/03/08 09:21:46;;;;;;;19.27;11.77;;;8.10;99.90;;;;;;5011152;28;20451;-72
2022/03/08 09:24:13;;;;;;;17.33;12.00;;;8.10;99.90;;;;;;5011248;28;20477;-70
2022/03/08 09:26:40;;;;;;;15.30;11.00;;;8.20;99.90;;;;;;5011499;28;20466;-70
2022/03/08 09:29:07;;;;;;;14.63;10.50;;;8.20;99.90;;;;;;5010660;28;20462;-70
2022/03/08 09:31:35;;;;;;;15.33;11.23;;;8.10;99.90;;;;;;5010630;28;20457;-69
2022/03/08 09:34:01;;;;;;;19.27;12.40;;;8.10;99.90;;;;;;5010637;28;20458;-70
2022/03/08 09:36:28;;;;;;;17.23;11.90;;;8.30;99.90;;;;;;5010517;28;20599;-70
2022/03/08 09:38:55;;;;;;;14.47;9.40;;;8.80;99.90;;;;;;5010167;28;20477;-70
2022/03/08 09:41:22;;;;;;;16.40;10.83;;;9.20;99.90;;;;;;5010482;28;20458;-70
2022/03/08 09:43:50;;;;;;;17.03;11.07;;;9.10;99.90;;;;;;5006410;28;20450;-70
2022/03/08 09:46:16;;;;;;;14.80;10.30;;;8.70;99.90;;;;;;5009003;28;20480;-70
2022/03/08 09:48:45;;;;;;;19.90;10.53;;;8.80;99.90;;;;;;5009567;28;20572;-70
2022/03/08 09:51:14;;;;;;;17.60;10.30;;;8.80;99.90;;;;;;5010037;28;20536;-70
2022/03/08 09:53:42;;;;;;;20.33;10.87;;;8.80;99.90;;;;;;5010139;28;20453;-70
2022/03/08 09:56:09;;;;;;;14.50;9.70;;;8.60;99.90;;;;;;5008510;28;20470;-70
2022/03/08 09:58:39;;;;;;;16.20;10.13;;;8.40;99.90;;;;;;5008512;28;20603;-70
2022/03/08 10:01:06;;;;;;;18.07;9.50;;;8.40;99.90;;;;;;5008971;28;20465;-70
2022/03/08 10:03:35;;;;;;;21.20;9.20;;;8.70;99.90;;;;;;5010260;28;20466;-70
2022/03/08 10:06:04;;;;;;;14.93;8.70;;;8.60;99.90;;;;;;5008919;28;20885;-70
2022/03/08 10:08:31;;;;;;;14.10;9.60;;;8.80;99.90;;;;;;5010716;28;20446;-70
2022/03/08 10:10:59;;;;;;;12.70;8.70;;;9.00;99.90;;;;;;5011071;28;20459;-71
2022/03/08 10:13:29;;;;;;;13.70;9.90;;;8.90;99.90;;;;;;5010160;28;20454;-72
2022/03/08 10:16:13;;;;;;;16.13;9.80;;;8.90;99.90;;;;;;5010999;28;21169;-72
2022/03/08 10:18:42;;;;;;;15.75;10.07;;;9.30;99.90;;;;;;5009105;28;20459;-70
2022/03/08 10:21:31;;;;;;;13.43;9.43;;;9.10;99.90;;;;;;5010543;28;20209;-70
2022/03/08 10:23:59;;;;;;;14.30;9.67;;;9.00;99.90;;;;;;5010152;28;20520;-70
2022/03/08 10:26:26;;;;;;;18.17;10.33;;;9.10;99.90;;;;;;5011410;28;20470;-70
2022/03/08 10:28:56;;;;;;;16.90;9.47;;;9.10;99.90;;;;;;5010415;28;20451;-72
2022/03/08 10:31:23;;;;;;;13.80;9.23;;;9.00;99.80;;;;;;5008683;28;20473;-72
2022/03/08 10:33:51;;;;;;;13.20;8.87;;;8.90;99.90;;;;;;5009663;28;20458;-72
2022/03/08 10:36:21;;;;;;;13.60;8.93;;;9.30;99.90;;;;;;5010642;28;20482;-73
2022/03/08 10:39:14;;;;;;;12.57;8.20;;;9.20;99.90;;;;;;4994183;28;20478;-73
2022/03/08 10:41:48;;;;;;;11.87;8.10;;;9.70;99.50;;;;;;5015180;28;20555;-72
2022/03/08 10:44:16;;;;;;;10.90;8.17;;;9.60;98.70;;;;;;5027776;28;20469;-72
2022/03/08 10:46:43;;;;;;;12.70;8.20;;;9.40;98.70;;;;;;5028298;28;20504;-72
2022/03/08 10:49:13;;;;;;;11.97;8.80;;;9.10;98.60;;;;;;5028692;28;20453;-72
2022/03/08 10:51:40;;;;;;;12.00;8.27;;;8.80;98.60;;;;;;5024713;28;20473;-73
2022/03/08 10:54:16;;;;;;;9.77;7.80;;;8.60;98.90;;;;;;5027664;28;20453;-72
2022/03/08 10:56:44;;;;;;;12.13;7.70;;;8.50;98.80;;;;;;5029832;28;20468;-72
2022/03/08 10:59:12;;;;;;;14.00;8.90;;;8.40;99.20;;;;;;5030043;28;20997;-72
2022/03/08 11:01:39;;;;;;;10.90;7.13;;;8.10;99.10;;;;;;5029773;28;21127;-72
2022/03/08 11:04:16;;;;;;;15.67;8.17;;;8.30;99.30;;;;;;5028947;28;20458;-72
2022/03/08 11:06:44;;;;;;;10.70;7.63;;;8.40;99.10;;;;;;5028529;28;20476;-72
2022/03/08 11:09:11;;;;;;;18.60;8.10;;;8.40;98.70;;;;;;5030356;28;20462;-70
2022/03/08 11:11:39;;;;;;;12.07;8.43;;;8.50;99.00;;;;;;5029774;28;20461;-70
2022/03/08 11:14:06;;;;;;;13.90;8.70;;;8.60;99.00;;;;;;5029227;28;20445;-70
2022/03/08 11:16:34;;;;;;;11.17;8.27;;;8.70;99.30;;;;;;5029651;28;20501;-70
2022/03/08 11:19:01;;;;;;;10.73;7.97;;;8.80;98.70;;;;;;5032590;28;20484;-72
2022/03/08 11:21:31;;;;;;;15.40;8.20;;;8.90;98.60;;;;;;5033473;28;20461;-72
2022/03/08 11:23:59;;;;;;;13.13;8.53;;;9.20;98.60;;;;;;5032730;28;20454;-72
2022/03/08 11:26:26;;;;;;;14.03;8.20;;;9.40;97.70;;;;;;5033020;28;20473;-72
2022/03/08 11:28:55;;;;;;;10.65;7.60;;;9.50;97.90;;;;;;5033966;28;20512;-70
2022/03/08 11:31:27;;;;;;;12.90;8.03;;;9.30;96.90;;;;;;5031905;28;20309;-70
2022/03/08 11:34:01;;;;;;;12.90;7.60;;;8.90;97.90;;;;;;5032018;28;20445;-71
2022/03/08 11:36:33;;;;;;;10.73;8.40;;;9.10;97.10;;;;;;5033039;28;20472;-71
2022/03/08 11:39:21;;;;;;;10.70;7.73;;;9.20;97.00;;;;;;5033352;28;20477;-71
2022/03/08 11:41:50;;;;;;;15.43;8.43;;;9.20;97.60;;;;;;5032167;28;20476;-72
2022/03/08 11:44:30;;;;;;;10.70;8.13;;;9.50;97.30;;;;;;5032220;28;20460;-71
2022/03/08 11:47:07;;;;;;;12.90;8.40;;;9.50;96.80;;;;;;5032908;28;21001;-70
2022/03/08 11:49:40;;;;;;;12.47;8.10;;;9.70;96.80;;;;;;5013526;28;20472;-70
2022/03/08 11:52:16;;;;;;;16.90;9.47;;;9.80;96.90;;;;;;5029386;28;20449;-70
2022/03/08 11:54:54;;;;;;;10.10;7.53;;;9.80;96.70;;;;;;5016842;28;20460;-72
2022/03/08 11:57:50;;;;;;;10.40;7.47;;;9.50;96.80;;;;;;5032534;28;20534;-72
2022/03/08 12:00:19;;;;;;;11.50;7.70;;;9.60;95.90;;;;;;5032741;28;20484;-73
2022/03/08 12:02:47;;;;;;;13.47;7.50;;;9.60;96.70;;;;;;5029827;28;20465;-70
2022/03/08 12:05:47;;;;;;;10.67;7.10;;;9.80;96.00;;;;;;5031833;28;20883;-71
2022/03/08 12:08:51;;;;;;;11.43;7.60;;;9.70;95.70;;;;;;5029516;28;20957;-71
2022/03/08 12:11:36;;;;;;;10.00;7.30;;;10.00;94.50;;;;;;5032407;28;20457;-74
2022/03/08 12:14:07;;;;;;;8.40;7.17;;;10.30;94.40;;;;;;5031945;28;20796;-73
2022/03/08 12:16:39;;;;;;;11.20;7.50;;;10.30;94.10;;;;;;5032326;28;20546;-74
2022/03/08 12:19:07;;;;;;;9.63;7.60;;;10.30;93.70;;;;;;5032719;28;20485;-73
2022/03/08 12:21:43;;;;;;;10.47;7.73;;;10.40;93.70;;;;;;5031911;28;20485;-70
2022/03/08 12:24:16;;;;;;;8.60;7.07;;;10.50;93.20;;;;;;5031762;28;20977;-71
2022/03/08 12:26:53;;;;;;;9.30;7.20;;;10.30;92.30;;;;;;5032561;28;20473;-71
2022/03/08 12:29:22;;;;;;;10.80;7.63;;;10.10;93.00;;;;;;5031260;28;20460;-72
2022/03/08 12:32:25;;;;;;;11.27;8.30;;;10.20;93.00;;;;;;5031556;28;20954;-73
2022/03/08 12:34:56;;;;;;;9.87;7.83;;;10.30;92.90;;;;;;5032109;28;20460;-73
2022/03/08 12:37:24;;;;;;;12.63;7.63;;;10.40;93.00;;;;;;5031928;28;20989;-74
2022/03/08 12:39:55;;;;;;;10.40;7.57;;;11.00;92.50;;;;;;5025532;28;20927;-74
2022/03/08 12:42:28;;;;;;;10.50;7.60;;;10.90;91.30;;;;;;5032263;28;20536;-74